首页
METAR-TAF:

METAR-TAF

机场 :

Earlton, 安大略省, 加拿大

纬度: 47-42N, 经度: 079-51W, 海拔: 243米

当前天气观测

该预报发布于21分钟前的08:15 UTC
风速12节,风向西北,有时为21节阵风
温度 -18°C
湿度 71%
气压 998 hPa
能見度: 14.5公里
散云层高于11000英尺

METAR: CYXR 100815Z AUTO 31012G21KT 9SM SCT110 M18/M22 A2947 RMK PRESRR SLP002

时间: 03:36 (08:36 UTC)

预报

该预报发布于8小时和26分钟前的00:10 UTC
预报有效从10日的 00点(UTC)到 10日的 01点(UTC)
风速10节,风向
能見度: 9.7公里
阴天层高于2000英尺
小雪, 轻雾
短暂存在
从 10日的 00点(UTC)到 10日的 01点(UTC)
阴天层高于700英尺
小雪
几率 30%
从 10日的 00点(UTC)到 10日的 01点(UTC)
能見度: 8.0公里
(小) 冻, 雨, (小) 冰粒

TAF: CYXR 100010Z 1000/1001 35010KT 6SM -SN BR OVC020 TEMPO 1000/1001 11/2SM -SN OVC007 PROB30 1000/1001 5SM -FZRA -PL RMK FCST BASED ON AUTO OBS. NXT FCST WILL BE ISSUED AT 101245Z

超过4000个机场的气象观测和天气预报(METAR&TAF报告)。

可查询的气象台以黄色和红色小点在地图上表示。

将鼠标移到小点上方,可查看气象台名称。

然后点击查看天气观测和预报。

如需切换地图:点击带黑十字的绿色按钮放大地图;点击带横线的绿色按钮缩小地图;或者点击绿色箭头查看邻近地区的地图。


METAR-TAF: